sensor_id;sensor_type;location;lat;lon;timestamp;pressure;altitude;pressure_sealevel;temperature;humidity
30730;BME280;17476;48.458;7.928;2024-01-30T00:02:11;101392.00;;;5.75;100.00
30730;BME280;17476;48.458;7.928;2024-01-30T00:04:36;101380.75;;;6.03;100.00
30730;BME280;17476;48.458;7.928;2024-01-30T00:07:02;101385.94;;;6.03;98.66
30730;BME280;17476;48.458;7.928;2024-01-30T00:09:28;101384.09;;;6.05;98.43
30730;BME280;17476;48.458;7.928;2024-01-30T00:11:54;101379.59;;;6.07;99.56
30730;BME280;17476;48.458;7.928;2024-01-30T00:14:20;101383.19;;;6.19;98.14
30730;BME280;17476;48.458;7.928;2024-01-30T00:16:46;101379.19;;;6.00;97.98
30730;BME280;17476;48.458;7.928;2024-01-30T00:19:12;101380.97;;;6.13;98.54
30730;BME280;17476;48.458;7.928;2024-01-30T00:21:37;101390.38;;;6.01;97.07
30730;BME280;17476;48.458;7.928;2024-01-30T00:24:03;101385.47;;;5.69;99.46
30730;BME280;17476;48.458;7.928;2024-01-30T00:26:29;101387.66;;;5.75;99.57
30730;BME280;17476;48.458;7.928;2024-01-30T00:28:55;101386.28;;;5.70;99.39
30730;BME280;17476;48.458;7.928;2024-01-30T00:31:21;101390.63;;;5.84;99.55
30730;BME280;17476;48.458;7.928;2024-01-30T00:33:47;101384.56;;;5.97;99.28
30730;BME280;17476;48.458;7.928;2024-01-30T00:36:12;101391.44;;;5.84;98.44
30730;BME280;17476;48.458;7.928;2024-01-30T00:38:38;101387.41;;;5.66;98.67
30730;BME280;17476;48.458;7.928;2024-01-30T00:41:04;101391.97;;;5.62;99.94
30730;BME280;17476;48.458;7.928;2024-01-30T00:43:30;101391.38;;;5.71;99.20
30730;BME280;17476;48.458;7.928;2024-01-30T00:45:57;101386.69;;;5.64;100.00
30730;BME280;17476;48.458;7.928;2024-01-30T00:48:23;101391.19;;;5.74;99.06
30730;BME280;17476;48.458;7.928;2024-01-30T00:50:49;101389.50;;;5.73;99.76
30730;BME280;17476;48.458;7.928;2024-01-30T00:53:15;101389.34;;;5.77;99.21
30730;BME280;17476;48.458;7.928;2024-01-30T00:55:41;101392.22;;;5.72;99.31
30730;BME280;17476;48.458;7.928;2024-01-30T00:58:07;101393.28;;;5.27;100.00
30730;BME280;17476;48.458;7.928;2024-01-30T01:00:32;101393.28;;;5.41;100.00
30730;BME280;17476;48.458;7.928;2024-01-30T01:02:59;101386.63;;;5.37;100.00
30730;BME280;17476;48.458;7.928;2024-01-30T01:05:25;101387.09;;;5.29;100.00
30730;BME280;17476;48.458;7.928;2024-01-30T01:07:51;101386.50;;;5.53;100.00
30730;BME280;17476;48.458;7.928;2024-01-30T01:10:17;101381.25;;;5.40;100.00
30730;BME280;17476;48.458;7.928;2024-01-30T01:12:44;101382.41;;;5.48;100.00
30730;BME280;17476;48.458;7.928;2024-01-30T01:15:10;101383.28;;;4.92;100.00
30730;BME280;17476;48.458;7.928;2024-01-30T01:17:37;101393.91;;;4.87;100.00
30730;BME280;17476;48.458;7.928;2024-01-30T01:20:05;101376.53;;;5.18;100.00
30730;BME280;17476;48.458;7.928;2024-01-30T01:22:32;101385.88;;;5.20;100.00
30730;BME280;17476;48.458;7.928;2024-01-30T01:24:58;101378.19;;;5.33;100.00
30730;BME280;17476;48.458;7.928;2024-01-30T01:27:24;101385.72;;;5.24;100.00
30730;BME280;17476;48.458;7.928;2024-01-30T01:29:51;101388.91;;;5.41;100.00
30730;BME280;17476;48.458;7.928;2024-01-30T01:32:17;101386.44;;;5.40;99.76
30730;BME280;17476;48.458;7.928;2024-01-30T01:34:42;101385.97;;;5.33;99.40
30730;BME280;17476;48.458;7.928;2024-01-30T01:37:08;101388.19;;;5.39;100.00
30730;BME280;17476;48.458;7.928;2024-01-30T01:39:34;101381.88;;;5.58;99.56
30730;BME280;17476;48.458;7.928;2024-01-30T01:42:00;101380.28;;;5.55;100.00
30730;BME280;17476;48.458;7.928;2024-01-30T01:44:26;101379.81;;;5.48;99.40
30730;BME280;17476;48.458;7.928;2024-01-30T01:46:52;101383.53;;;5.59;98.43
30730;BME280;17476;48.458;7.928;2024-01-30T01:49:20;101378.09;;;5.49;97.70
30730;BME280;17476;48.458;7.928;2024-01-30T01:51:48;101379.69;;;5.23;98.89
30730;BME280;17476;48.458;7.928;2024-01-30T01:54:14;101376.44;;;5.19;99.47
30730;BME280;17476;48.458;7.928;2024-01-30T01:56:42;101373.59;;;5.10;100.00
30730;BME280;17476;48.458;7.928;2024-01-30T01:59:09;101380.78;;;5.19;100.00
30730;BME280;17476;48.458;7.928;2024-01-30T02:01:38;101380.41;;;5.39;100.00
30730;BME280;17476;48.458;7.928;2024-01-30T02:04:04;101378.47;;;5.43;100.00
30730;BME280;17476;48.458;7.928;2024-01-30T02:06:32;101385.59;;;5.39;99.39
30730;BME280;17476;48.458;7.928;2024-01-30T02:08:57;101377.25;;;5.34;99.75
30730;BME280;17476;48.458;7.928;2024-01-30T02:11:23;101379.19;;;5.45;99.48
30730;BME280;17476;48.458;7.928;2024-01-30T02:13:50;101377.47;;;5.17;99.70
30730;BME280;17476;48.458;7.928;2024-01-30T02:16:16;101385.88;;;5.20;100.00
30730;BME280;17476;48.458;7.928;2024-01-30T02:18:43;101385.59;;;5.25;100.00
30730;BME280;17476;48.458;7.928;2024-01-30T02:21:12;101381.13;;;5.41;100.00
30730;BME280;17476;48.458;7.928;2024-01-30T02:23:39;101382.28;;;5.37;99.14
30730;BME280;17476;48.458;7.928;2024-01-30T02:26:06;101386.63;;;5.37;98.65
30730;BME280;17476;48.458;7.928;2024-01-30T02:28:32;101390.44;;;5.31;98.52
30730;BME280;17476;48.458;7.928;2024-01-30T02:30:58;101374.59;;;5.36;98.17
30730;BME280;17476;48.458;7.928;2024-01-30T02:33:23;101380.78;;;5.33;99.05
30730;BME280;17476;48.458;7.928;2024-01-30T02:35:49;101382.28;;;5.23;100.00
30730;BME280;17476;48.458;7.928;2024-01-30T02:38:17;101384.31;;;5.32;99.37
30730;BME280;17476;48.458;7.928;2024-01-30T02:40:44;101380.84;;;5.46;99.82
30730;BME280;17476;48.458;7.928;2024-01-30T02:43:09;101384.97;;;5.36;98.76
30730;BME280;17476;48.458;7.928;2024-01-30T02:45:35;101385.50;;;5.41;97.76
30730;BME280;17476;48.458;7.928;2024-01-30T02:48:01;101391.50;;;5.41;98.32
30730;BME280;17476;48.458;7.928;2024-01-30T02:50:27;101391.50;;;5.41;98.41
30730;BME280;17476;48.458;7.928;2024-01-30T02:52:53;101389.25;;;5.23;98.71
30730;BME280;17476;48.458;7.928;2024-01-30T02:55:22;101390.06;;;5.23;99.12
30730;BME280;17476;48.458;7.928;2024-01-30T02:57:47;101395.25;;;4.95;98.67
30730;BME280;17476;48.458;7.928;2024-01-30T03:00:13;101395.69;;;5.01;98.93
30730;BME280;17476;48.458;7.928;2024-01-30T03:02:39;101389.03;;;5.11;100.00
30730;BME280;17476;48.458;7.928;2024-01-30T03:05:07;101391.63;;;5.11;98.83
30730;BME280;17476;48.458;7.928;2024-01-30T03:07:33;101388.00;;;5.00;98.07
30730;BME280;17476;48.458;7.928;2024-01-30T03:09:59;101396.72;;;4.99;97.78
30730;BME280;17476;48.458;7.928;2024-01-30T03:12:25;101391.63;;;4.97;98.14
30730;BME280;17476;48.458;7.928;2024-01-30T03:14:51;101392.00;;;4.91;97.49
30730;BME280;17476;48.458;7.928;2024-01-30T03:17:17;101391.53;;;4.84;97.52
30730;BME280;17476;48.458;7.928;2024-01-30T03:19:42;101396.44;;;4.89;98.91
30730;BME280;17476;48.458;7.928;2024-01-30T03:22:08;101394.47;;;4.78;99.13
30730;BME280;17476;48.458;7.928;2024-01-30T03:24:34;101404.63;;;4.67;100.00
30730;BME280;17476;48.458;7.928;2024-01-30T03:26:59;101402.44;;;4.75;100.00
30730;BME280;17476;48.458;7.928;2024-01-30T03:29:25;101405.19;;;4.72;100.00
30730;BME280;17476;48.458;7.928;2024-01-30T03:31:51;101402.59;;;4.72;100.00
30730;BME280;17476;48.458;7.928;2024-01-30T03:34:17;101409.00;;;4.81;100.00
30730;BME280;17476;48.458;7.928;2024-01-30T03:36:42;101405.88;;;4.76;99.98
30730;BME280;17476;48.458;7.928;2024-01-30T03:39:08;101403.72;;;4.68;100.00
30730;BME280;17476;48.458;7.928;2024-01-30T03:41:34;101403.25;;;4.61;100.00
30730;BME280;17476;48.458;7.928;2024-01-30T03:44:00;101403.13;;;4.49;100.00
30730;BME280;17476;48.458;7.928;2024-01-30T03:46:25;101406.69;;;4.46;100.00
30730;BME280;17476;48.458;7.928;2024-01-30T03:48:51;101405.16;;;4.58;100.00
30730;BME280;17476;48.458;7.928;2024-01-30T03:51:17;101396.03;;;4.66;100.00
30730;BME280;17476;48.458;7.928;2024-01-30T03:53:43;101405.03;;;4.75;100.00
30730;BME280;17476;48.458;7.928;2024-01-30T03:56:09;101395.84;;;4.70;100.00
30730;BME280;17476;48.458;7.928;2024-01-30T03:58:35;101402.00;;;4.83;100.00
30730;BME280;17476;48.458;7.928;2024-01-30T04:01:01;101393.41;;;4.52;100.00
30730;BME280;17476;48.458;7.928;2024-01-30T04:03:27;101401.38;;;4.63;100.00
30730;BME280;17476;48.458;7.928;2024-01-30T04:05:53;101406.03;;;4.73;100.00
30730;BME280;17476;48.458;7.928;2024-01-30T04:08:19;101397.25;;;4.75;100.00
30730;BME280;17476;48.458;7.928;2024-01-30T04:10:46;101395.50;;;4.76;99.36
30730;BME280;17476;48.458;7.928;2024-01-30T04:13:12;101396.22;;;4.63;99.87
30730;BME280;17476;48.458;7.928;2024-01-30T04:15:38;101395.59;;;4.74;100.00
30730;BME280;17476;48.458;7.928;2024-01-30T04:18:04;101400.91;;;4.57;100.00
30730;BME280;17476;48.458;7.928;2024-01-30T04:20:30;101397.91;;;4.79;100.00
30730;BME280;17476;48.458;7.928;2024-01-30T04:22:56;101399.50;;;4.81;99.89
30730;BME280;17476;48.458;7.928;2024-01-30T04:25:21;101399.63;;;4.64;99.11
30730;BME280;17476;48.458;7.928;2024-01-30T04:27:47;101398.59;;;4.66;99.52
30730;BME280;17476;48.458;7.928;2024-01-30T04:30:13;101389.84;;;4.69;99.00
30730;BME280;17476;48.458;7.928;2024-01-30T04:32:39;101386.75;;;4.48;100.00
30730;BME280;17476;48.458;7.928;2024-01-30T04:35:05;101393.84;;;4.45;100.00
30730;BME280;17476;48.458;7.928;2024-01-30T04:37:31;101392.66;;;4.50;100.00
30730;BME280;17476;48.458;7.928;2024-01-30T04:39:57;101389.66;;;4.72;99.86
30730;BME280;17476;48.458;7.928;2024-01-30T04:42:22;101392.25;;;4.72;98.28
30730;BME280;17476;48.458;7.928;2024-01-30T04:44:49;101395.94;;;4.68;98.59
30730;BME280;17476;48.458;7.928;2024-01-30T04:47:15;101397.41;;;4.72;98.15
30730;BME280;17476;48.458;7.928;2024-01-30T04:49:41;101395.38;;;4.63;99.01
30730;BME280;17476;48.458;7.928;2024-01-30T04:52:08;101392.69;;;4.64;98.23
30730;BME280;17476;48.458;7.928;2024-01-30T04:54:35;101392.16;;;4.74;98.54
30730;BME280;17476;48.458;7.928;2024-01-30T04:57:04;101391.31;;;4.73;98.40
30730;BME280;17476;48.458;7.928;2024-01-30T04:59:31;101401.13;;;4.68;97.89
30730;BME280;17476;48.458;7.928;2024-01-30T05:01:56;101399.69;;;4.48;99.81
30730;BME280;17476;48.458;7.928;2024-01-30T05:04:22;101402.69;;;4.10;100.00
30730;BME280;17476;48.458;7.928;2024-01-30T05:06:48;101401.69;;;4.13;100.00
30730;BME280;17476;48.458;7.928;2024-01-30T05:09:14;101397.56;;;4.41;100.00
30730;BME280;17476;48.458;7.928;2024-01-30T05:11:40;101394.88;;;4.42;100.00
30730;BME280;17476;48.458;7.928;2024-01-30T05:14:07;101395.72;;;4.57;99.56
30730;BME280;17476;48.458;7.928;2024-01-30T05:16:34;101390.06;;;4.50;99.68
30730;BME280;17476;48.458;7.928;2024-01-30T05:19:00;101392.78;;;4.63;98.91
30730;BME280;17476;48.458;7.928;2024-01-30T05:21:26;101393.03;;;4.58;98.93
30730;BME280;17476;48.458;7.928;2024-01-30T05:23:51;101395.22;;;4.80;98.82
30730;BME280;17476;48.458;7.928;2024-01-30T05:26:17;101396.84;;;4.67;98.68
30730;BME280;17476;48.458;7.928;2024-01-30T05:28:43;101401.41;;;4.78;98.58
30730;BME280;17476;48.458;7.928;2024-01-30T05:31:12;101393.75;;;4.76;98.21
30730;BME280;17476;48.458;7.928;2024-01-30T05:33:38;101399.09;;;4.87;98.15
30730;BME280;17476;48.458;7.928;2024-01-30T05:36:04;101405.97;;;4.88;97.57
30730;BME280;17476;48.458;7.928;2024-01-30T05:38:29;101409.44;;;4.73;97.51
30730;BME280;17476;48.458;7.928;2024-01-30T05:40:56;101407.09;;;4.99;98.08
30730;BME280;17476;48.458;7.928;2024-01-30T05:43:23;101402.25;;;4.78;96.87
30730;BME280;17476;48.458;7.928;2024-01-30T05:45:49;101405.03;;;4.75;97.24
30730;BME280;17476;48.458;7.928;2024-01-30T05:48:15;101400.69;;;4.90;97.21
30730;BME280;17476;48.458;7.928;2024-01-30T05:50:41;101402.25;;;4.92;96.58
30730;BME280;17476;48.458;7.928;2024-01-30T05:53:07;101410.97;;;4.91;96.62
30730;BME280;17476;48.458;7.928;2024-01-30T05:55:33;101414.34;;;4.63;97.72
30730;BME280;17476;48.458;7.928;2024-01-30T05:57:58;101415.66;;;4.71;97.73
30730;BME280;17476;48.458;7.928;2024-01-30T06:00:24;101405.78;;;4.91;97.07
30730;BME280;17476;48.458;7.928;2024-01-30T06:02:50;101405.31;;;4.99;97.63
30730;BME280;17476;48.458;7.928;2024-01-30T06:05:16;101401.53;;;4.90;96.45
30730;BME280;17476;48.458;7.928;2024-01-30T06:07:42;101400.50;;;4.93;97.29
30730;BME280;17476;48.458;7.928;2024-01-30T06:10:08;101401.63;;;5.03;96.78
30730;BME280;17476;48.458;7.928;2024-01-30T06:12:35;101406.16;;;4.85;97.73
30730;BME280;17476;48.458;7.928;2024-01-30T06:15:01;101401.44;;;4.92;97.86
30730;BME280;17476;48.458;7.928;2024-01-30T06:17:28;101400.50;;;5.07;96.66
30730;BME280;17476;48.458;7.928;2024-01-30T06:19:54;101397.66;;;5.12;96.35
30730;BME280;17476;48.458;7.928;2024-01-30T06:22:19;101400.97;;;5.00;96.40
30730;BME280;17476;48.458;7.928;2024-01-30T06:24:45;101400.44;;;4.95;96.83
30730;BME280;17476;48.458;7.928;2024-01-30T06:27:13;101401.44;;;5.06;96.49
30730;BME280;17476;48.458;7.928;2024-01-30T06:29:40;101400.59;;;5.06;95.59
30730;BME280;17476;48.458;7.928;2024-01-30T06:32:06;101404.13;;;5.05;95.35
30730;BME280;17476;48.458;7.928;2024-01-30T06:34:32;101399.03;;;5.17;95.23
30730;BME280;17476;48.458;7.928;2024-01-30T06:36:58;101400.88;;;5.01;95.64
30730;BME280;17476;48.458;7.928;2024-01-30T06:39:23;101399.44;;;4.67;96.83
30730;BME280;17476;48.458;7.928;2024-01-30T06:41:49;101404.59;;;4.53;98.50
30730;BME280;17476;48.458;7.928;2024-01-30T06:44:15;101404.84;;;4.78;98.59
30730;BME280;17476;48.458;7.928;2024-01-30T06:46:41;101404.59;;;4.83;97.73
30730;BME280;17476;48.458;7.928;2024-01-30T06:49:06;101402.00;;;5.11;97.25
30730;BME280;17476;48.458;7.928;2024-01-30T06:51:32;101412.25;;;4.84;95.39
30730;BME280;17476;48.458;7.928;2024-01-30T06:53:58;101412.81;;;4.75;96.67
30730;BME280;17476;48.458;7.928;2024-01-30T06:56:24;101416.16;;;4.47;97.81
30730;BME280;17476;48.458;7.928;2024-01-30T06:58:50;101416.91;;;4.33;99.08
30730;BME280;17476;48.458;7.928;2024-01-30T07:01:16;101414.78;;;4.56;97.56
30730;BME280;17476;48.458;7.928;2024-01-30T07:03:42;101414.19;;;4.81;97.10
30730;BME280;17476;48.458;7.928;2024-01-30T07:06:09;101412.25;;;4.84;96.45
30730;BME280;17476;48.458;7.928;2024-01-30T07:08:37;101412.53;;;4.94;95.93
30730;BME280;17476;48.458;7.928;2024-01-30T07:11:05;101416.03;;;4.79;95.47
30730;BME280;17476;48.458;7.928;2024-01-30T07:13:32;101415.53;;;4.88;96.09
30730;BME280;17476;48.458;7.928;2024-01-30T07:15:57;101413.84;;;5.01;96.36
30730;BME280;17476;48.458;7.928;2024-01-30T07:18:23;101419.91;;;4.72;96.67
30730;BME280;17476;48.458;7.928;2024-01-30T07:20:49;101422.84;;;4.96;97.57
30730;BME280;17476;48.458;7.928;2024-01-30T07:23:16;101414.97;;;5.11;96.16
30730;BME280;17476;48.458;7.928;2024-01-30T07:25:46;101418.03;;;5.18;95.48
30730;BME280;17476;48.458;7.928;2024-01-30T07:28:14;101419.06;;;5.15;95.53
30730;BME280;17476;48.458;7.928;2024-01-30T07:30:42;101410.16;;;5.19;94.44
30730;BME280;17476;48.458;7.928;2024-01-30T07:33:08;101419.88;;;5.30;95.72
30730;BME280;17476;48.458;7.928;2024-01-30T07:35:35;101425.44;;;4.96;95.52
30730;BME280;17476;48.458;7.928;2024-01-30T07:38:01;101427.56;;;5.03;96.26
30730;BME280;17476;48.458;7.928;2024-01-30T07:40:27;101429.97;;;5.06;95.67
30730;BME280;17476;48.458;7.928;2024-01-30T07:42:54;101435.97;;;5.07;96.19
30730;BME280;17476;48.458;7.928;2024-01-30T07:45:19;101432.28;;;5.11;97.05
30730;BME280;17476;48.458;7.928;2024-01-30T07:47:50;101434.69;;;5.00;96.12
30730;BME280;17476;48.458;7.928;2024-01-30T07:50:16;101442.03;;;5.22;95.62
30730;BME280;17476;48.458;7.928;2024-01-30T07:52:43;101437.28;;;5.14;95.97
30730;BME280;17476;48.458;7.928;2024-01-30T07:55:09;101440.53;;;5.32;95.70
30730;BME280;17476;48.458;7.928;2024-01-30T07:57:35;101443.50;;;5.40;94.57
30730;BME280;17476;48.458;7.928;2024-01-30T08:00:01;101447.28;;;5.63;95.00
30730;BME280;17476;48.458;7.928;2024-01-30T08:02:28;101446.78;;;5.85;93.29
30730;BME280;17476;48.458;7.928;2024-01-30T08:04:54;101444.31;;;5.83;92.79
30730;BME280;17476;48.458;7.928;2024-01-30T08:07:20;101443.09;;;6.03;93.37
30730;BME280;17476;48.458;7.928;2024-01-30T08:09:47;101445.75;;;6.01;92.76
30730;BME280;17476;48.458;7.928;2024-01-30T08:12:13;101452.03;;;6.12;93.32
30730;BME280;17476;48.458;7.928;2024-01-30T08:14:39;101440.06;;;6.09;92.73
30730;BME280;17476;48.458;7.928;2024-01-30T08:17:06;101437.78;;;6.32;93.56
30730;BME280;17476;48.458;7.928;2024-01-30T08:19:33;101435.13;;;6.46;93.25
30730;BME280;17476;48.458;7.928;2024-01-30T08:21:59;101433.47;;;6.45;90.88
30730;BME280;17476;48.458;7.928;2024-01-30T08:24:25;101434.53;;;6.68;92.12
30730;BME280;17476;48.458;7.928;2024-01-30T08:26:51;101428.22;;;6.84;91.51
30730;BME280;17476;48.458;7.928;2024-01-30T08:29:16;101435.59;;;6.65;90.78
30730;BME280;17476;48.458;7.928;2024-01-30T08:31:42;101432.00;;;6.53;89.51
30730;BME280;17476;48.458;7.928;2024-01-30T08:34:08;101431.41;;;6.75;89.98
30730;BME280;17476;48.458;7.928;2024-01-30T08:36:34;101427.38;;;6.84;88.71
30730;BME280;17476;48.458;7.928;2024-01-30T08:38:59;101428.44;;;6.94;90.46
30730;BME280;17476;48.458;7.928;2024-01-30T08:41:25;101425.28;;;6.89;90.08
30730;BME280;17476;48.458;7.928;2024-01-30T08:43:52;101431.56;;;6.99;89.22
30730;BME280;17476;48.458;7.928;2024-01-30T08:46:18;101426.78;;;7.06;88.59
30730;BME280;17476;48.458;7.928;2024-01-30T08:48:46;101436.97;;;7.09;89.19
30730;BME280;17476;48.458;7.928;2024-01-30T08:51:12;101439.44;;;7.10;90.34
30730;BME280;17476;48.458;7.928;2024-01-30T08:53:39;101435.91;;;7.24;90.14
30730;BME280;17476;48.458;7.928;2024-01-30T08:56:06;101441.63;;;7.42;89.31
30730;BME280;17476;48.458;7.928;2024-01-30T08:58:32;101436.59;;;7.52;89.48
30730;BME280;17476;48.458;7.928;2024-01-30T09:00:58;101440.34;;;7.60;88.25
30730;BME280;17476;48.458;7.928;2024-01-30T09:03:24;101441.16;;;7.74;88.43
30730;BME280;17476;48.458;7.928;2024-01-30T09:05:50;101443.84;;;7.72;88.34
30730;BME280;17476;48.458;7.928;2024-01-30T09:08:16;101438.09;;;7.92;88.33
30730;BME280;17476;48.458;7.928;2024-01-30T09:10:41;101444.06;;;8.06;86.65
30730;BME280;17476;48.458;7.928;2024-01-30T09:13:07;101443.75;;;8.10;89.05
30730;BME280;17476;48.458;7.928;2024-01-30T09:15:33;101446.97;;;8.14;87.62
30730;BME280;17476;48.458;7.928;2024-01-30T09:17:59;101441.53;;;8.17;86.20
30730;BME280;17476;48.458;7.928;2024-01-30T09:20:24;101447.84;;;8.26;87.38
30730;BME280;17476;48.458;7.928;2024-01-30T09:22:50;101457.81;;;8.32;88.07
30730;BME280;17476;48.458;7.928;2024-01-30T09:25:16;101451.75;;;8.44;86.61
30730;BME280;17476;48.458;7.928;2024-01-30T09:27:42;101456.75;;;8.47;87.08
30730;BME280;17476;48.458;7.928;2024-01-30T09:30:08;101463.25;;;8.41;85.23
30730;BME280;17476;48.458;7.928;2024-01-30T09:32:34;101464.03;;;8.66;85.63
30730;BME280;17476;48.458;7.928;2024-01-30T09:34:59;101459.94;;;8.74;85.33
30730;BME280;17476;48.458;7.928;2024-01-30T09:37:25;101464.53;;;8.71;85.54
30730;BME280;17476;48.458;7.928;2024-01-30T09:39:54;101463.47;;;8.73;86.11
30730;BME280;17476;48.458;7.928;2024-01-30T09:42:34;101466.72;;;8.88;84.02
30730;BME280;17476;48.458;7.928;2024-01-30T09:45:05;101469.94;;;9.03;85.06
30730;BME280;17476;48.458;7.928;2024-01-30T09:47:42;101465.47;;;9.16;85.35
30730;BME280;17476;48.458;7.928;2024-01-30T09:50:09;101462.16;;;9.37;83.99
30730;BME280;17476;48.458;7.928;2024-01-30T09:52:36;101465.13;;;9.43;83.68
30730;BME280;17476;48.458;7.928;2024-01-30T09:55:03;101469.88;;;9.38;84.59
30730;BME280;17476;48.458;7.928;2024-01-30T09:57:29;101461.44;;;9.57;86.19
30730;BME280;17476;48.458;7.928;2024-01-30T09:59:55;101459.78;;;9.67;83.67
30730;BME280;17476;48.458;7.928;2024-01-30T10:02:22;101463.22;;;9.68;83.42
30730;BME280;17476;48.458;7.928;2024-01-30T10:04:51;101459.41;;;9.83;82.50
30730;BME280;17476;48.458;7.928;2024-01-30T10:07:18;101452.97;;;9.98;80.98
30730;BME280;17476;48.458;7.928;2024-01-30T10:09:45;101460.25;;;10.16;81.49
30730;BME280;17476;48.458;7.928;2024-01-30T10:12:11;101455.50;;;10.32;81.30
30730;BME280;17476;48.458;7.928;2024-01-30T10:14:39;101459.63;;;10.46;81.24
30730;BME280;17476;48.458;7.928;2024-01-30T10:17:05;101463.13;;;10.56;79.90
30730;BME280;17476;48.458;7.928;2024-01-30T10:19:31;101463.09;;;10.67;79.61
30730;BME280;17476;48.458;7.928;2024-01-30T10:21:57;101466.16;;;10.72;79.41
30730;BME280;17476;48.458;7.928;2024-01-30T10:24:26;101461.38;;;10.77;77.90
30730;BME280;17476;48.458;7.928;2024-01-30T10:26:53;101463.09;;;10.88;76.71
30730;BME280;17476;48.458;7.928;2024-01-30T10:29:19;101465.34;;;10.92;77.14
30730;BME280;17476;48.458;7.928;2024-01-30T10:31:44;101456.63;;;11.13;76.29
30730;BME280;17476;48.458;7.928;2024-01-30T10:34:10;101462.31;;;11.18;77.06
30730;BME280;17476;48.458;7.928;2024-01-30T10:36:46;101467.81;;;11.45;76.58
30730;BME280;17476;48.458;7.928;2024-01-30T10:39:15;101470.09;;;11.60;75.52
30730;BME280;17476;48.458;7.928;2024-01-30T10:41:47;101464.38;;;11.85;76.17
30730;BME280;17476;48.458;7.928;2024-01-30T10:44:18;101472.66;;;11.81;73.08
30730;BME280;17476;48.458;7.928;2024-01-30T10:47:02;101474.31;;;11.91;71.75
30730;BME280;17476;48.458;7.928;2024-01-30T10:49:32;101481.69;;;12.07;71.60
30730;BME280;17476;48.458;7.928;2024-01-30T10:51:58;101465.69;;;12.58;70.74
30730;BME280;17476;48.458;7.928;2024-01-30T10:54:25;101467.13;;;13.29;68.49
30730;BME280;17476;48.458;7.928;2024-01-30T10:56:52;101453.50;;;13.98;65.77
30730;BME280;17476;48.458;7.928;2024-01-30T10:59:19;101454.81;;;14.12;62.23
30730;BME280;17476;48.458;7.928;2024-01-30T11:01:47;101455.47;;;13.96;62.00
30730;BME280;17476;48.458;7.928;2024-01-30T11:04:13;101446.28;;;13.82;64.61
30730;BME280;17476;48.458;7.928;2024-01-30T11:06:41;101446.22;;;14.28;61.86
30730;BME280;17476;48.458;7.928;2024-01-30T11:09:11;101448.88;;;14.63;61.35
30730;BME280;17476;48.458;7.928;2024-01-30T11:11:58;101445.63;;;14.34;61.61
30730;BME280;17476;48.458;7.928;2024-01-30T11:14:30;101449.69;;;14.28;61.91
30730;BME280;17476;48.458;7.928;2024-01-30T11:16:59;101449.16;;;13.89;62.33
30730;BME280;17476;48.458;7.928;2024-01-30T11:19:26;101451.31;;;13.38;63.97
30730;BME280;17476;48.458;7.928;2024-01-30T11:21:53;101457.25;;;13.41;63.07
30730;BME280;17476;48.458;7.928;2024-01-30T11:24:23;101451.09;;;13.59;64.52
30730;BME280;17476;48.458;7.928;2024-01-30T11:26:55;101455.50;;;13.31;65.15
30730;BME280;17476;48.458;7.928;2024-01-30T11:29:25;101449.91;;;12.97;67.54
30730;BME280;17476;48.458;7.928;2024-01-30T11:31:55;101448.78;;;13.00;68.93
30730;BME280;17476;48.458;7.928;2024-01-30T11:34:22;101448.41;;;12.95;68.89
30730;BME280;17476;48.458;7.928;2024-01-30T11:36:52;101444.22;;;13.02;69.47
30730;BME280;17476;48.458;7.928;2024-01-30T11:39:29;101443.44;;;13.38;68.60
30730;BME280;17476;48.458;7.928;2024-01-30T11:41:55;101439.94;;;13.48;67.45
30730;BME280;17476;48.458;7.928;2024-01-30T11:44:22;101439.00;;;13.39;68.26
30730;BME280;17476;48.458;7.928;2024-01-30T11:46:52;101440.03;;;13.28;68.59
30730;BME280;17476;48.458;7.928;2024-01-30T11:49:19;101445.03;;;13.12;70.04
30730;BME280;17476;48.458;7.928;2024-01-30T11:51:48;101439.78;;;13.22;70.36
30730;BME280;17476;48.458;7.928;2024-01-30T11:54:17;101440.53;;;12.95;70.80
30730;BME280;17476;48.458;7.928;2024-01-30T11:56:43;101442.06;;;12.88;68.32
30730;BME280;17476;48.458;7.928;2024-01-30T11:59:09;101435.53;;;12.92;70.98
30730;BME280;17476;48.458;7.928;2024-01-30T12:01:35;101435.03;;;12.69;70.41
30730;BME280;17476;48.458;7.928;2024-01-30T12:04:02;101431.22;;;13.00;68.77
30730;BME280;17476;48.458;7.928;2024-01-30T12:06:28;101430.41;;;13.00;69.70
30730;BME280;17476;48.458;7.928;2024-01-30T12:08:59;101436.06;;;13.05;68.88
30730;BME280;17476;48.458;7.928;2024-01-30T12:11:26;101436.72;;;13.17;66.50
30730;BME280;17476;48.458;7.928;2024-01-30T12:13:53;101429.16;;;13.41;67.60
30730;BME280;17476;48.458;7.928;2024-01-30T12:16:20;101434.06;;;13.26;63.86
30730;BME280;17476;48.458;7.928;2024-01-30T12:18:46;101422.56;;;13.64;64.62
30730;BME280;17476;48.458;7.928;2024-01-30T12:21:12;101429.25;;;13.59;62.21
30730;BME280;17476;48.458;7.928;2024-01-30T12:23:37;101416.44;;;13.91;62.67
30730;BME280;17476;48.458;7.928;2024-01-30T12:26:04;101410.97;;;13.85;60.72
30730;BME280;17476;48.458;7.928;2024-01-30T12:28:33;101422.03;;;14.24;60.57
30730;BME280;17476;48.458;7.928;2024-01-30T12:31:02;101415.19;;;14.31;59.09
30730;BME280;17476;48.458;7.928;2024-01-30T12:33:29;101406.75;;;14.28;58.97
30730;BME280;17476;48.458;7.928;2024-01-30T12:35:56;101411.59;;;14.50;58.49
30730;BME280;17476;48.458;7.928;2024-01-30T12:38:24;101407.66;;;14.54;58.34
30730;BME280;17476;48.458;7.928;2024-01-30T12:40:59;101409.03;;;14.58;57.98
30730;BME280;17476;48.458;7.928;2024-01-30T12:43:25;101406.22;;;14.60;57.93
30730;BME280;17476;48.458;7.928;2024-01-30T12:45:52;101411.66;;;14.58;58.50
30730;BME280;17476;48.458;7.928;2024-01-30T12:48:18;101416.06;;;14.40;58.78
30730;BME280;17476;48.458;7.928;2024-01-30T12:50:44;101411.34;;;14.26;60.19
30730;BME280;17476;48.458;7.928;2024-01-30T12:53:10;101409.03;;;14.23;60.03